sensor_id;sensor_type;location;lat;lon;timestamp;P1;durP1;ratioP1;P2;durP2;ratioP2
52848;SDS011;38714;53.180;5.812;2023-07-20T00:01:54;0.60;;;0.60;;
52848;SDS011;38714;53.180;5.812;2023-07-20T00:04:20;0.63;;;0.60;;
52848;SDS011;38714;53.180;5.812;2023-07-20T00:06:45;0.93;;;0.68;;
52848;SDS011;38714;53.180;5.812;2023-07-20T00:09:11;1.73;;;0.90;;
52848;SDS011;38714;53.180;5.812;2023-07-20T00:11:37;1.73;;;0.80;;
52848;SDS011;38714;53.180;5.812;2023-07-20T00:14:04;1.70;;;0.75;;
52848;SDS011;38714;53.180;5.812;2023-07-20T00:16:30;2.30;;;0.85;;
52848;SDS011;38714;53.180;5.812;2023-07-20T00:18:55;2.83;;;0.95;;
52848;SDS011;38714;53.180;5.812;2023-07-20T00:21:21;1.55;;;0.80;;
52848;SDS011;38714;53.180;5.812;2023-07-20T00:23:46;2.03;;;0.80;;
52848;SDS011;38714;53.180;5.812;2023-07-20T00:26:12;1.90;;;1.13;;
52848;SDS011;38714;53.180;5.812;2023-07-20T00:28:38;1.27;;;0.80;;
52848;SDS011;38714;53.180;5.812;2023-07-20T00:31:03;2.65;;;1.95;;
52848;SDS011;38714;53.180;5.812;2023-07-20T00:33:29;1.15;;;1.05;;
52848;SDS011;38714;53.180;5.812;2023-07-20T00:35:55;1.35;;;1.17;;
52848;SDS011;38714;53.180;5.812;2023-07-20T00:38:20;1.83;;;1.40;;
52848;SDS011;38714;53.180;5.812;2023-07-20T00:40:46;1.45;;;1.25;;
52848;SDS011;38714;53.180;5.812;2023-07-20T00:43:13;1.58;;;1.48;;
52848;SDS011;38714;53.180;5.812;2023-07-20T00:45:38;3.67;;;1.40;;
52848;SDS011;38714;53.180;5.812;2023-07-20T00:48:05;1.45;;;1.27;;
52848;SDS011;38714;53.180;5.812;2023-07-20T00:50:34;2.83;;;1.67;;
52848;SDS011;38714;53.180;5.812;2023-07-20T00:53:00;1.65;;;1.15;;
52848;SDS011;38714;53.180;5.812;2023-07-20T00:55:30;3.45;;;1.33;;
52848;SDS011;38714;53.180;5.812;2023-07-20T00:57:55;2.65;;;2.08;;
52848;SDS011;38714;53.180;5.812;2023-07-20T01:00:21;3.08;;;1.20;;
52848;SDS011;38714;53.180;5.812;2023-07-20T01:02:47;2.40;;;1.33;;
52848;SDS011;38714;53.180;5.812;2023-07-20T01:05:12;1.95;;;1.40;;
52848;SDS011;38714;53.180;5.812;2023-07-20T01:10:20;2.78;;;1.30;;
52848;SDS011;38714;53.180;5.812;2023-07-20T01:12:51;1.50;;;1.40;;
52848;SDS011;38714;53.180;5.812;2023-07-20T01:15:18;1.83;;;1.48;;
52848;SDS011;38714;53.180;5.812;2023-07-20T01:17:44;1.33;;;1.20;;
52848;SDS011;38714;53.180;5.812;2023-07-20T01:20:10;1.35;;;1.25;;
52848;SDS011;38714;53.180;5.812;2023-07-20T01:29:11;1.88;;;1.35;;
52848;SDS011;38714;53.180;5.812;2023-07-20T01:31:46;1.25;;;1.15;;
52848;SDS011;38714;53.180;5.812;2023-07-20T01:34:17;1.40;;;0.93;;
52848;SDS011;38714;53.180;5.812;2023-07-20T01:36:44;1.30;;;1.20;;
52848;SDS011;38714;53.180;5.812;2023-07-20T01:39:12;0.95;;;0.80;;
52848;SDS011;38714;53.180;5.812;2023-07-20T01:41:38;1.35;;;1.10;;
52848;SDS011;38714;53.180;5.812;2023-07-20T01:44:04;1.17;;;1.08;;
52848;SDS011;38714;53.180;5.812;2023-07-20T01:46:30;2.45;;;1.17;;
52848;SDS011;38714;53.180;5.812;2023-07-20T01:48:56;1.13;;;1.02;;
52848;SDS011;38714;53.180;5.812;2023-07-20T01:51:22;1.55;;;0.90;;
52848;SDS011;38714;53.180;5.812;2023-07-20T01:53:47;1.30;;;0.73;;
52848;SDS011;38714;53.180;5.812;2023-07-20T01:56:13;2.28;;;0.95;;
52848;SDS011;38714;53.180;5.812;2023-07-20T01:58:39;1.77;;;1.05;;
52848;SDS011;38714;53.180;5.812;2023-07-20T02:01:04;1.50;;;1.23;;
52848;SDS011;38714;53.180;5.812;2023-07-20T02:03:30;2.45;;;1.35;;
52848;SDS011;38714;53.180;5.812;2023-07-20T02:05:56;1.45;;;1.15;;
52848;SDS011;38714;53.180;5.812;2023-07-20T02:08:24;2.08;;;1.27;;
52848;SDS011;38714;53.180;5.812;2023-07-20T02:10:50;1.25;;;1.15;;
52848;SDS011;38714;53.180;5.812;2023-07-20T02:13:16;1.08;;;0.98;;
52848;SDS011;38714;53.180;5.812;2023-07-20T02:15:42;1.35;;;1.20;;
52848;SDS011;38714;53.180;5.812;2023-07-20T02:18:08;1.13;;;1.02;;
52848;SDS011;38714;53.180;5.812;2023-07-20T02:20:34;1.73;;;0.95;;
52848;SDS011;38714;53.180;5.812;2023-07-20T02:23:00;1.45;;;1.25;;
52848;SDS011;38714;53.180;5.812;2023-07-20T02:25:26;3.22;;;1.50;;
52848;SDS011;38714;53.180;5.812;2023-07-20T02:27:52;1.60;;;1.40;;
52848;SDS011;38714;53.180;5.812;2023-07-20T02:30:17;2.05;;;1.33;;
52848;SDS011;38714;53.180;5.812;2023-07-20T02:32:43;2.45;;;1.10;;
52848;SDS011;38714;53.180;5.812;2023-07-20T02:35:13;2.28;;;1.77;;
52848;SDS011;38714;53.180;5.812;2023-07-20T02:37:41;2.00;;;1.60;;
52848;SDS011;38714;53.180;5.812;2023-07-20T02:40:07;1.40;;;1.30;;
52848;SDS011;38714;53.180;5.812;2023-07-20T02:42:34;1.92;;;1.27;;
52848;SDS011;38714;53.180;5.812;2023-07-20T02:45:01;1.58;;;1.17;;
52848;SDS011;38714;53.180;5.812;2023-07-20T02:47:28;2.08;;;1.25;;
52848;SDS011;38714;53.180;5.812;2023-07-20T02:49:54;1.92;;;1.45;;
52848;SDS011;38714;53.180;5.812;2023-07-20T02:52:19;2.13;;;1.90;;
52848;SDS011;38714;53.180;5.812;2023-07-20T02:54:45;1.40;;;1.27;;
52848;SDS011;38714;53.180;5.812;2023-07-20T02:57:11;2.33;;;1.75;;
52848;SDS011;38714;53.180;5.812;2023-07-20T02:59:36;3.28;;;1.48;;
52848;SDS011;38714;53.180;5.812;2023-07-20T03:02:02;2.33;;;1.67;;
52848;SDS011;38714;53.180;5.812;2023-07-20T03:04:28;1.77;;;1.50;;
52848;SDS011;38714;53.180;5.812;2023-07-20T03:06:54;3.90;;;1.48;;
52848;SDS011;38714;53.180;5.812;2023-07-20T03:09:19;2.20;;;1.42;;
52848;SDS011;38714;53.180;5.812;2023-07-20T03:11:45;1.85;;;1.35;;
52848;SDS011;38714;53.180;5.812;2023-07-20T03:14:11;2.28;;;1.77;;
52848;SDS011;38714;53.180;5.812;2023-07-20T03:16:37;3.40;;;2.35;;
52848;SDS011;38714;53.180;5.812;2023-07-20T03:19:03;1.88;;;1.58;;
52848;SDS011;38714;53.180;5.812;2023-07-20T03:21:29;2.83;;;1.55;;
52848;SDS011;38714;53.180;5.812;2023-07-20T03:23:55;3.72;;;1.48;;
52848;SDS011;38714;53.180;5.812;2023-07-20T03:26:20;2.53;;;1.40;;
52848;SDS011;38714;53.180;5.812;2023-07-20T03:28:46;1.80;;;1.30;;
52848;SDS011;38714;53.180;5.812;2023-07-20T03:31:13;1.60;;;1.35;;
52848;SDS011;38714;53.180;5.812;2023-07-20T03:33:40;4.72;;;1.75;;
52848;SDS011;38714;53.180;5.812;2023-07-20T03:36:05;3.00;;;1.23;;
52848;SDS011;38714;53.180;5.812;2023-07-20T03:38:31;1.45;;;0.98;;
52848;SDS011;38714;53.180;5.812;2023-07-20T03:40:58;2.10;;;1.40;;
52848;SDS011;38714;53.180;5.812;2023-07-20T03:43:26;2.05;;;1.33;;
52848;SDS011;38714;53.180;5.812;2023-07-20T03:45:53;1.98;;;1.30;;
52848;SDS011;38714;53.180;5.812;2023-07-20T03:48:20;1.33;;;1.10;;
52848;SDS011;38714;53.180;5.812;2023-07-20T03:50:48;2.42;;;1.63;;
52848;SDS011;38714;53.180;5.812;2023-07-20T03:53:15;2.15;;;1.55;;
52848;SDS011;38714;53.180;5.812;2023-07-20T03:55:44;3.55;;;1.40;;
52848;SDS011;38714;53.180;5.812;2023-07-20T03:58:14;2.75;;;1.40;;
52848;SDS011;38714;53.180;5.812;2023-07-20T04:00:44;2.58;;;1.20;;
52848;SDS011;38714;53.180;5.812;2023-07-20T04:03:10;1.70;;;1.60;;
52848;SDS011;38714;53.180;5.812;2023-07-20T04:05:36;1.75;;;1.48;;
52848;SDS011;38714;53.180;5.812;2023-07-20T04:08:01;1.92;;;1.25;;
52848;SDS011;38714;53.180;5.812;2023-07-20T04:10:27;2.90;;;1.30;;
52848;SDS011;38714;53.180;5.812;2023-07-20T04:12:53;2.45;;;1.75;;
52848;SDS011;38714;53.180;5.812;2023-07-20T04:15:18;1.90;;;1.48;;
52848;SDS011;38714;53.180;5.812;2023-07-20T04:17:44;1.88;;;1.25;;
52848;SDS011;38714;53.180;5.812;2023-07-20T04:20:10;3.40;;;1.25;;
52848;SDS011;38714;53.180;5.812;2023-07-20T04:22:36;2.05;;;1.60;;
52848;SDS011;38714;53.180;5.812;2023-07-20T04:25:02;1.95;;;1.55;;
52848;SDS011;38714;53.180;5.812;2023-07-20T04:27:28;2.35;;;2.10;;
52848;SDS011;38714;53.180;5.812;2023-07-20T04:29:55;1.58;;;1.45;;
52848;SDS011;38714;53.180;5.812;2023-07-20T04:32:24;3.95;;;2.47;;
52848;SDS011;38714;53.180;5.812;2023-07-20T04:34:50;1.85;;;1.40;;
52848;SDS011;38714;53.180;5.812;2023-07-20T04:37:15;2.08;;;1.60;;
52848;SDS011;38714;53.180;5.812;2023-07-20T04:39:41;1.48;;;1.35;;
52848;SDS011;38714;53.180;5.812;2023-07-20T04:42:07;2.65;;;1.35;;
52848;SDS011;38714;53.180;5.812;2023-07-20T04:44:32;1.33;;;1.20;;
52848;SDS011;38714;53.180;5.812;2023-07-20T04:46:58;2.72;;;1.35;;
52848;SDS011;38714;53.180;5.812;2023-07-20T04:49:23;2.20;;;1.38;;
52848;SDS011;38714;53.180;5.812;2023-07-20T04:51:49;3.45;;;1.67;;
52848;SDS011;38714;53.180;5.812;2023-07-20T04:54:15;2.00;;;1.30;;
52848;SDS011;38714;53.180;5.812;2023-07-20T04:56:41;1.52;;;1.23;;
52848;SDS011;38714;53.180;5.812;2023-07-20T04:59:07;2.92;;;1.58;;
52848;SDS011;38714;53.180;5.812;2023-07-20T05:01:32;1.88;;;1.50;;
52848;SDS011;38714;53.180;5.812;2023-07-20T05:03:58;2.88;;;1.60;;
52848;SDS011;38714;53.180;5.812;2023-07-20T05:06:23;1.85;;;1.58;;
52848;SDS011;38714;53.180;5.812;2023-07-20T05:08:49;2.28;;;1.58;;
52848;SDS011;38714;53.180;5.812;2023-07-20T05:11:15;1.83;;;1.63;;
52848;SDS011;38714;53.180;5.812;2023-07-20T05:13:41;1.70;;;1.42;;
52848;SDS011;38714;53.180;5.812;2023-07-20T05:16:06;1.98;;;1.58;;
52848;SDS011;38714;53.180;5.812;2023-07-20T05:18:32;1.52;;;1.42;;
52848;SDS011;38714;53.180;5.812;2023-07-20T05:20:58;2.47;;;1.73;;
52848;SDS011;38714;53.180;5.812;2023-07-20T05:23:23;1.58;;;1.40;;
52848;SDS011;38714;53.180;5.812;2023-07-20T05:26:07;2.28;;;1.42;;
52848;SDS011;38714;53.180;5.812;2023-07-20T05:28:39;3.35;;;2.22;;
52848;SDS011;38714;53.180;5.812;2023-07-20T05:31:05;2.45;;;1.67;;
52848;SDS011;38714;53.180;5.812;2023-07-20T05:33:31;4.53;;;1.77;;
52848;SDS011;38714;53.180;5.812;2023-07-20T05:35:57;2.97;;;1.63;;
52848;SDS011;38714;53.180;5.812;2023-07-20T05:38:22;2.35;;;1.58;;
52848;SDS011;38714;53.180;5.812;2023-07-20T05:40:48;2.58;;;2.10;;
52848;SDS011;38714;53.180;5.812;2023-07-20T05:43:14;2.15;;;1.48;;
52848;SDS011;38714;53.180;5.812;2023-07-20T05:45:43;3.70;;;1.80;;
52848;SDS011;38714;53.180;5.812;2023-07-20T05:48:10;4.95;;;1.75;;
52848;SDS011;38714;53.180;5.812;2023-07-20T05:50:36;4.90;;;1.65;;
52848;SDS011;38714;53.180;5.812;2023-07-20T05:53:03;4.28;;;1.92;;
52848;SDS011;38714;53.180;5.812;2023-07-20T05:55:28;1.73;;;1.35;;
52848;SDS011;38714;53.180;5.812;2023-07-20T05:57:54;7.97;;;1.70;;
52848;SDS011;38714;53.180;5.812;2023-07-20T06:00:21;1.67;;;1.13;;
52848;SDS011;38714;53.180;5.812;2023-07-20T06:02:51;3.38;;;1.48;;
52848;SDS011;38714;53.180;5.812;2023-07-20T06:05:18;1.17;;;1.08;;
52848;SDS011;38714;53.180;5.812;2023-07-20T06:07:45;1.75;;;0.77;;
52848;SDS011;38714;53.180;5.812;2023-07-20T06:10:10;4.20;;;1.20;;
52848;SDS011;38714;53.180;5.812;2023-07-20T06:12:36;4.10;;;1.13;;
52848;SDS011;38714;53.180;5.812;2023-07-20T06:15:05;2.72;;;1.05;;
52848;SDS011;38714;53.180;5.812;2023-07-20T06:17:31;1.20;;;0.90;;
52848;SDS011;38714;53.180;5.812;2023-07-20T06:19:58;1.77;;;0.68;;
52848;SDS011;38714;53.180;5.812;2023-07-20T06:22:23;1.42;;;0.70;;
52848;SDS011;38714;53.180;5.812;2023-07-20T06:24:49;0.68;;;0.65;;
52848;SDS011;38714;53.180;5.812;2023-07-20T06:27:14;4.85;;;1.88;;
52848;SDS011;38714;53.180;5.812;2023-07-20T06:29:40;0.60;;;0.55;;
52848;SDS011;38714;53.180;5.812;2023-07-20T06:32:06;0.82;;;0.60;;
52848;SDS011;38714;53.180;5.812;2023-07-20T06:34:32;2.85;;;1.23;;
52848;SDS011;38714;53.180;5.812;2023-07-20T06:37:02;2.65;;;1.40;;
52848;SDS011;38714;53.180;5.812;2023-07-20T06:39:29;8.13;;;0.90;;
52848;SDS011;38714;53.180;5.812;2023-07-20T06:41:55;0.90;;;0.63;;
52848;SDS011;38714;53.180;5.812;2023-07-20T06:44:20;5.43;;;1.00;;
52848;SDS011;38714;53.180;5.812;2023-07-20T06:46:46;0.80;;;0.70;;
52848;SDS011;38714;53.180;5.812;2023-07-20T06:49:19;1.08;;;0.60;;
52848;SDS011;38714;53.180;5.812;2023-07-20T06:51:52;1.98;;;0.93;;
52848;SDS011;38714;53.180;5.812;2023-07-20T06:54:18;1.35;;;0.80;;
52848;SDS011;38714;53.180;5.812;2023-07-20T06:56:43;4.78;;;1.02;;
52848;SDS011;38714;53.180;5.812;2023-07-20T06:59:09;0.82;;;0.75;;
52848;SDS011;38714;53.180;5.812;2023-07-20T07:01:35;1.20;;;1.10;;
52848;SDS011;38714;53.180;5.812;2023-07-20T07:04:00;2.67;;;0.98;;
52848;SDS011;38714;53.180;5.812;2023-07-20T07:06:26;2.00;;;0.80;;
52848;SDS011;38714;53.180;5.812;2023-07-20T07:08:52;1.95;;;0.75;;
52848;SDS011;38714;53.180;5.812;2023-07-20T07:11:18;1.25;;;0.70;;
52848;SDS011;38714;53.180;5.812;2023-07-20T07:13:45;1.15;;;0.70;;
52848;SDS011;38714;53.180;5.812;2023-07-20T07:16:12;1.60;;;1.02;;
52848;SDS011;38714;53.180;5.812;2023-07-20T07:18:39;1.23;;;0.98;;
52848;SDS011;38714;53.180;5.812;2023-07-20T07:21:05;1.65;;;1.20;;
52848;SDS011;38714;53.180;5.812;2023-07-20T07:23:31;1.58;;;0.82;;
52848;SDS011;38714;53.180;5.812;2023-07-20T07:25:56;1.05;;;0.70;;
52848;SDS011;38714;53.180;5.812;2023-07-20T07:28:22;3.67;;;0.80;;
52848;SDS011;38714;53.180;5.812;2023-07-20T07:30:48;1.10;;;0.77;;
52848;SDS011;38714;53.180;5.812;2023-07-20T07:33:13;1.30;;;0.80;;
52848;SDS011;38714;53.180;5.812;2023-07-20T07:35:39;3.78;;;1.10;;
52848;SDS011;38714;53.180;5.812;2023-07-20T07:38:04;1.27;;;1.10;;
52848;SDS011;38714;53.180;5.812;2023-07-20T07:40:31;3.20;;;2.28;;
52848;SDS011;38714;53.180;5.812;2023-07-20T07:42:57;3.33;;;1.75;;
52848;SDS011;38714;53.180;5.812;2023-07-20T07:45:22;1.95;;;0.82;;
52848;SDS011;38714;53.180;5.812;2023-07-20T07:47:48;1.92;;;0.85;;
52848;SDS011;38714;53.180;5.812;2023-07-20T07:50:14;3.45;;;0.95;;
52848;SDS011;38714;53.180;5.812;2023-07-20T07:52:39;1.50;;;1.05;;
52848;SDS011;38714;53.180;5.812;2023-07-20T07:55:05;2.83;;;1.00;;
52848;SDS011;38714;53.180;5.812;2023-07-20T07:57:31;2.88;;;1.20;;
52848;SDS011;38714;53.180;5.812;2023-07-20T07:59:56;3.58;;;1.25;;
52848;SDS011;38714;53.180;5.812;2023-07-20T08:02:22;3.40;;;1.52;;
52848;SDS011;38714;53.180;5.812;2023-07-20T08:04:48;2.55;;;1.02;;
52848;SDS011;38714;53.180;5.812;2023-07-20T08:07:16;1.88;;;0.90;;
52848;SDS011;38714;53.180;5.812;2023-07-20T08:09:41;1.77;;;1.10;;
52848;SDS011;38714;53.180;5.812;2023-07-20T08:12:07;2.65;;;1.00;;
52848;SDS011;38714;53.180;5.812;2023-07-20T08:14:33;2.45;;;0.93;;
52848;SDS011;38714;53.180;5.812;2023-07-20T08:16:59;2.08;;;0.75;;
52848;SDS011;38714;53.180;5.812;2023-07-20T08:19:24;1.92;;;1.27;;
52848;SDS011;38714;53.180;5.812;2023-07-20T08:21:50;3.03;;;1.50;;
52848;SDS011;38714;53.180;5.812;2023-07-20T08:24:16;2.42;;;1.48;;
52848;SDS011;38714;53.180;5.812;2023-07-20T08:26:41;1.92;;;1.70;;
52848;SDS011;38714;53.180;5.812;2023-07-20T08:29:07;2.75;;;0.98;;
52848;SDS011;38714;53.180;5.812;2023-07-20T08:31:33;1.88;;;0.90;;
52848;SDS011;38714;53.180;5.812;2023-07-20T08:33:58;4.50;;;0.85;;
52848;SDS011;38714;53.180;5.812;2023-07-20T08:36:24;1.98;;;0.90;;
52848;SDS011;38714;53.180;5.812;2023-07-20T08:38:50;3.55;;;1.65;;
52848;SDS011;38714;53.180;5.812;2023-07-20T08:41:16;3.70;;;1.40;;
52848;SDS011;38714;53.180;5.812;2023-07-20T08:43:42;2.92;;;1.10;;
52848;SDS011;38714;53.180;5.812;2023-07-20T08:46:09;2.10;;;0.90;;
52848;SDS011;38714;53.180;5.812;2023-07-20T08:48:37;3.70;;;0.93;;
52848;SDS011;38714;53.180;5.812;2023-07-20T08:51:04;5.00;;;1.05;;
52848;SDS011;38714;53.180;5.812;2023-07-20T08:53:30;1.33;;;0.93;;
52848;SDS011;38714;53.180;5.812;2023-07-20T08:55:57;2.20;;;0.82;;
52848;SDS011;38714;53.180;5.812;2023-07-20T08:58:25;1.42;;;0.85;;
52848;SDS011;38714;53.180;5.812;2023-07-20T09:00:51;3.22;;;0.65;;
52848;SDS011;38714;53.180;5.812;2023-07-20T09:03:18;1.50;;;0.65;;
52848;SDS011;38714;53.180;5.812;2023-07-20T09:05:44;1.27;;;0.90;;
52848;SDS011;38714;53.180;5.812;2023-07-20T09:08:10;2.80;;;1.08;;
52848;SDS011;38714;53.180;5.812;2023-07-20T09:10:36;3.50;;;0.70;;
52848;SDS011;38714;53.180;5.812;2023-07-20T09:13:01;1.92;;;0.75;;
52848;SDS011;38714;53.180;5.812;2023-07-20T09:15:28;1.45;;;0.98;;
52848;SDS011;38714;53.180;5.812;2023-07-20T09:17:54;3.58;;;0.90;;
52848;SDS011;38714;53.180;5.812;2023-07-20T09:20:20;1.63;;;0.68;;
52848;SDS011;38714;53.180;5.812;2023-07-20T09:22:46;2.40;;;0.93;;
52848;SDS011;38714;53.180;5.812;2023-07-20T09:25:12;1.85;;;0.70;;
52848;SDS011;38714;53.180;5.812;2023-07-20T09:27:40;6.35;;;0.95;;
52848;SDS011;38714;53.180;5.812;2023-07-20T09:30:08;1.77;;;0.80;;
52848;SDS011;38714;53.180;5.812;2023-07-20T09:32:40;1.92;;;0.90;;
52848;SDS011;38714;53.180;5.812;2023-07-20T09:35:16;3.97;;;1.17;;
52848;SDS011;38714;53.180;5.812;2023-07-20T09:38:17;1.73;;;1.00;;
52848;SDS011;38714;53.180;5.812;2023-07-20T09:40:38;1.58;;;0.90;;
52848;SDS011;38714;53.180;5.812;2023-07-20T09:43:07;7.78;;;1.00;;
52848;SDS011;38714;53.180;5.812;2023-07-20T09:45:33;4.82;;;0.70;;
52848;SDS011;38714;53.180;5.812;2023-07-20T09:48:04;1.05;;;0.75;;
52848;SDS011;38714;53.180;5.812;2023-07-20T09:50:32;3.03;;;0.95;;
52848;SDS011;38714;53.180;5.812;2023-07-20T09:52:58;1.33;;;0.80;;
52848;SDS011;38714;53.180;5.812;2023-07-20T09:55:25;0.70;;;0.70;;
52848;SDS011;38714;53.180;5.812;2023-07-20T09:57:52;4.30;;;0.55;;
52848;SDS011;38714;53.180;5.812;2023-07-20T10:00:18;3.10;;;1.00;;
52848;SDS011;38714;53.180;5.812;2023-07-20T10:02:46;1.92;;;1.17;;
52848;SDS011;38714;53.180;5.812;2023-07-20T10:05:12;3.55;;;0.65;;
52848;SDS011;38714;53.180;5.812;2023-07-20T10:07:49;3.33;;;0.90;;
52848;SDS011;38714;53.180;5.812;2023-07-20T10:10:16;4.30;;;0.88;;
52848;SDS011;38714;53.180;5.812;2023-07-20T10:12:43;1.98;;;0.80;;
52848;SDS011;38714;53.180;5.812;2023-07-20T10:15:19;2.17;;;0.70;;
52848;SDS011;38714;53.180;5.812;2023-07-20T10:18:03;1.27;;;0.80;;
52848;SDS011;38714;53.180;5.812;2023-07-20T10:20:35;0.80;;;0.63;;
52848;SDS011;38714;53.180;5.812;2023-07-20T10:23:04;2.30;;;0.90;;
52848;SDS011;38714;53.180;5.812;2023-07-20T10:25:31;1.30;;;0.70;;
52848;SDS011;38714;53.180;5.812;2023-07-20T10:27:57;6.18;;;0.70;;
52848;SDS011;38714;53.180;5.812;2023-07-20T10:30:24;1.20;;;0.80;;
52848;SDS011;38714;53.180;5.812;2023-07-20T10:32:51;1.38;;;0.80;;
52848;SDS011;38714;53.180;5.812;2023-07-20T10:35:17;1.08;;;0.65;;
52848;SDS011;38714;53.180;5.812;2023-07-20T10:37:50;2.08;;;0.60;;
52848;SDS011;38714;53.180;5.812;2023-07-20T10:40:26;0.93;;;0.80;;
52848;SDS011;38714;53.180;5.812;2023-07-20T10:43:05;0.82;;;0.70;;
52848;SDS011;38714;53.180;5.812;2023-07-20T10:46:15;3.17;;;1.20;;
52848;SDS011;38714;53.180;5.812;2023-07-20T10:48:23;1.73;;;0.85;;
52848;SDS011;38714;53.180;5.812;2023-07-20T10:53:36;1.48;;;0.90;;
52848;SDS011;38714;53.180;5.812;2023-07-20T10:56:09;0.82;;;0.70;;
52848;SDS011;38714;53.180;5.812;2023-07-20T10:58:38;1.50;;;0.85;;
52848;SDS011;38714;53.180;5.812;2023-07-20T11:01:05;1.85;;;0.95;;
52848;SDS011;38714;53.180;5.812;2023-07-20T11:03:36;1.23;;;1.05;;
52848;SDS011;38714;53.180;5.812;2023-07-20T11:11:36;2.38;;;0.90;;
52848;SDS011;38714;53.180;5.812;2023-07-20T11:14:04;2.33;;;0.85;;
52848;SDS011;38714;53.180;5.812;2023-07-20T11:19:15;1.50;;;1.17;;
52848;SDS011;38714;53.180;5.812;2023-07-20T11:21:41;1.27;;;1.17;;
52848;SDS011;38714;53.180;5.812;2023-07-20T11:24:09;2.70;;;1.10;;
52848;SDS011;38714;53.180;5.812;2023-07-20T11:26:42;1.13;;;0.75;;
52848;SDS011;38714;53.180;5.812;2023-07-20T11:29:09;3.53;;;0.85;;
52848;SDS011;38714;53.180;5.812;2023-07-20T11:31:35;0.95;;;0.80;;
52848;SDS011;38714;53.180;5.812;2023-07-20T11:34:02;3.13;;;1.02;;
52848;SDS011;38714;53.180;5.812;2023-07-20T11:36:28;3.63;;;0.85;;
52848;SDS011;38714;53.180;5.812;2023-07-20T11:38:53;0.77;;;0.60;;
52848;SDS011;38714;53.180;5.812;2023-07-20T11:41:19;3.22;;;0.90;;
52848;SDS011;38714;53.180;5.812;2023-07-20T11:43:46;2.63;;;1.25;;
52848;SDS011;38714;53.180;5.812;2023-07-20T11:46:12;1.05;;;0.70;;
52848;SDS011;38714;53.180;5.812;2023-07-20T11:48:38;2.05;;;0.70;;
52848;SDS011;38714;53.180;5.812;2023-07-20T11:51:05;3.75;;;1.05;;
52848;SDS011;38714;53.180;5.812;2023-07-20T11:53:30;1.10;;;0.70;;
52848;SDS011;38714;53.180;5.812;2023-07-20T11:55:58;1.58;;;1.42;;
52848;SDS011;38714;53.180;5.812;2023-07-20T11:58:24;1.90;;;0.95;;
52848;SDS011;38714;53.180;5.812;2023-07-20T12:00:52;1.42;;;0.98;;
52848;SDS011;38714;53.180;5.812;2023-07-20T12:03:19;2.35;;;0.75;;
52848;SDS011;38714;53.180;5.812;2023-07-20T12:05:45;1.35;;;0.80;;
52848;SDS011;38714;53.180;5.812;2023-07-20T12:08:11;1.98;;;0.93;;
52848;SDS011;38714;53.180;5.812;2023-07-20T12:10:38;1.83;;;1.10;;
52848;SDS011;38714;53.180;5.812;2023-07-20T12:13:09;1.80;;;0.90;;
52848;SDS011;38714;53.180;5.812;2023-07-20T12:15:36;1.92;;;0.90;;
52848;SDS011;38714;53.180;5.812;2023-07-20T12:18:02;1.67;;;0.90;;
52848;SDS011;38714;53.180;5.812;2023-07-20T12:20:35;2.72;;;0.90;;
52848;SDS011;38714;53.180;5.812;2023-07-20T12:23:09;1.92;;;1.02;;
52848;SDS011;38714;53.180;5.812;2023-07-20T12:25:40;1.70;;;1.00;;
52848;SDS011;38714;53.180;5.812;2023-07-20T12:28:17;1.77;;;0.90;;
52848;SDS011;38714;53.180;5.812;2023-07-20T12:30:44;1.80;;;0.90;;
52848;SDS011;38714;53.180;5.812;2023-07-20T12:33:11;1.20;;;0.50;;
52848;SDS011;38714;53.180;5.812;2023-07-20T12:35:40;0.50;;;0.50;;
52848;SDS011;38714;53.180;5.812;2023-07-20T12:38:06;0.60;;;0.60;;
52848;SDS011;38714;53.180;5.812;2023-07-20T12:40:32;1.48;;;0.70;;
52848;SDS011;38714;53.180;5.812;2023-07-20T12:42:57;1.20;;;0.70;;
52848;SDS011;38714;53.180;5.812;2023-07-20T12:45:23;0.85;;;0.70;;
52848;SDS011;38714;53.180;5.812;2023-07-20T12:47:49;3.13;;;0.63;;
52848;SDS011;38714;53.180;5.812;2023-07-20T12:50:15;0.93;;;0.57;;
52848;SDS011;38714;53.180;5.812;2023-07-20T12:52:40;1.42;;;0.80;;
52848;SDS011;38714;53.180;5.812;2023-07-20T12:55:06;2.35;;;0.85;;
52848;SDS011;38714;53.180;5.812;2023-07-20T12:57:36;1.65;;;0.82;;
52848;SDS011;38714;53.180;5.812;2023-07-20T13:00:03;2.85;;;0.70;;
52848;SDS011;38714;53.180;5.812;2023-07-20T13:02:34;1.08;;;0.60;;
52848;SDS011;38714;53.180;5.812;2023-07-20T13:05:00;1.40;;;0.80;;
52848;SDS011;38714;53.180;5.812;2023-07-20T13:07:30;0.70;;;0.70;;
52848;SDS011;38714;53.180;5.812;2023-07-20T13:09:57;1.35;;;1.08;;
52848;SDS011;38714;53.180;5.812;2023-07-20T13:12:24;1.48;;;0.88;;
52848;SDS011;38714;53.180;5.812;2023-07-20T13:14:49;1.40;;;0.90;;
52848;SDS011;38714;53.180;5.812;2023-07-20T13:17:15;1.15;;;0.90;;
52848;SDS011;38714;53.180;5.812;2023-07-20T13:19:41;1.05;;;0.70;;
52848;SDS011;38714;53.180;5.812;2023-07-20T13:22:06;0.75;;;0.50;;
52848;SDS011;38714;53.180;5.812;2023-07-20T13:24:32;1.00;;;0.63;;
52848;SDS011;38714;53.180;5.812;2023-07-20T13:26:57;1.25;;;0.60;;
52848;SDS011;38714;53.180;5.812;2023-07-20T13:29:23;4.15;;;1.00;;
52848;SDS011;38714;53.180;5.812;2023-07-20T13:31:50;0.57;;;0.43;;
52848;SDS011;38714;53.180;5.812;2023-07-20T13:34:15;1.20;;;0.75;;
52848;SDS011;38714;53.180;5.812;2023-07-20T13:36:41;2.65;;;0.50;;
52848;SDS011;38714;53.180;5.812;2023-07-20T13:39:06;1.48;;;0.82;;
52848;SDS011;38714;53.180;5.812;2023-07-20T13:41:33;1.27;;;0.57;;
52848;SDS011;38714;53.180;5.812;2023-07-20T13:43:59;0.57;;;0.57;;
52848;SDS011;38714;53.180;5.812;2023-07-20T13:46:25;0.95;;;0.60;;
52848;SDS011;38714;53.180;5.812;2023-07-20T13:48:50;1.45;;;1.23;;
52848;SDS011;38714;53.180;5.812;2023-07-20T13:51:16;2.10;;;0.70;;
52848;SDS011;38714;53.180;5.812;2023-07-20T13:53:42;0.77;;;0.60;;
52848;SDS011;38714;53.180;5.812;2023-07-20T13:56:11;1.38;;;0.75;;
52848;SDS011;38714;53.180;5.812;2023-07-20T13:58:36;1.20;;;1.00;;
52848;SDS011;38714;53.180;5.812;2023-07-20T14:01:02;0.65;;;0.60;;
52848;SDS011;38714;53.180;5.812;2023-07-20T14:03:27;2.10;;;0.80;;
52848;SDS011;38714;53.180;5.812;2023-07-20T14:05:53;1.13;;;0.70;;
52848;SDS011;38714;53.180;5.812;2023-07-20T14:08:20;1.95;;;1.00;;
52848;SDS011;38714;53.180;5.812;2023-07-20T14:10:46;1.20;;;1.08;;
52848;SDS011;38714;53.180;5.812;2023-07-20T14:13:11;1.02;;;0.93;;
52848;SDS011;38714;53.180;5.812;2023-07-20T14:15:38;1.52;;;0.75;;
52848;SDS011;38714;53.180;5.812;2023-07-20T14:18:03;3.42;;;0.77;;
52848;SDS011;38714;53.180;5.812;2023-07-20T14:20:29;1.40;;;1.05;;
52848;SDS011;38714;53.180;5.812;2023-07-20T14:22:55;0.75;;;0.73;;
52848;SDS011;38714;53.180;5.812;2023-07-20T14:25:20;1.90;;;1.35;;
52848;SDS011;38714;53.180;5.812;2023-07-20T14:27:46;1.17;;;0.80;;
52848;SDS011;38714;53.180;5.812;2023-07-20T14:30:12;1.90;;;0.88;;
52848;SDS011;38714;53.180;5.812;2023-07-20T14:32:38;1.42;;;0.73;;
52848;SDS011;38714;53.180;5.812;2023-07-20T14:35:04;1.23;;;0.80;;
52848;SDS011;38714;53.180;5.812;2023-07-20T14:37:31;1.55;;;0.80;;
52848;SDS011;38714;53.180;5.812;2023-07-20T14:39:57;3.25;;;1.95;;
52848;SDS011;38714;53.180;5.812;2023-07-20T14:42:22;1.58;;;0.80;;
52848;SDS011;38714;53.180;5.812;2023-07-20T14:44:48;2.53;;;0.90;;
52848;SDS011;38714;53.180;5.812;2023-07-20T14:47:13;1.42;;;0.93;;
52848;SDS011;38714;53.180;5.812;2023-07-20T14:49:39;2.00;;;0.75;;
52848;SDS011;38714;53.180;5.812;2023-07-20T14:52:05;1.27;;;0.90;;
52848;SDS011;38714;53.180;5.812;2023-07-20T14:54:31;3.58;;;0.80;;
52848;SDS011;38714;53.180;5.812;2023-07-20T14:56:56;1.35;;;0.85;;
52848;SDS011;38714;53.180;5.812;2023-07-20T14:59:22;4.03;;;1.85;;
52848;SDS011;38714;53.180;5.812;2023-07-20T15:01:48;2.33;;;1.10;;
52848;SDS011;38714;53.180;5.812;2023-07-20T15:04:14;2.42;;;1.10;;
52848;SDS011;38714;53.180;5.812;2023-07-20T15:06:40;4.35;;;1.10;;